首页
METAR-TAF:

METAR-TAF

机场 :

Churchill, 曼尼托巴, 加拿大

纬度: 58-44N, 经度: 094-04W, 海拔: 28米

当前天气观测

该预报发布于14分钟前的22:57 UTC
风速17节,风向西北
温度 -33°C
湿度 74%
气压 1020 hPa
能見度: 2.4公里
少量云层高于2000英尺
冰针, 高吹雪

METAR: CYYQ 232257Z 32017KT 1 1/2SM IC BLSN FEW020 M33/M36 A3012 RMK BLSN1SF1 SF TR SLP205

时间: 17:11 (23:11 UTC)

预报

该预报发布于2小时和1分钟前的21:10 UTC
预报有效从23日的 21点(UTC)到 24日的 18点(UTC)
风速15节,风向西北,有时为25节阵风
能見度: 1.2公里
层高于1000英尺
冰针, 高吹雪
短暂存在
从 23日的 21点(UTC)到 24日的 01点(UTC)
能見度: 4.8公里
天空无云
高吹雪
从 24日的 0100点(UTC)
风速15节,风向西北
能見度: 10公里
天空无云
短暂存在
从 24日的 01点(UTC)到 24日的 18点(UTC)
能見度: 6.4公里
冰针

TAF: CYYQ 232110Z 2321/2418 32015G25KT 3/4SM IC BLSN VV010 TEMPO 2321/2401 3SM BLSN SKC FM240100 32015KT P6SM SKC TEMPO 2401/2418 4SM IC RMK NXT FCST BY 240000Z

超过4000个机场的气象观测和天气预报(METAR&TAF报告)。

可查询的气象台以黄色和红色小点在地图上表示。

将鼠标移到小点上方,可查看气象台名称。

然后点击查看天气观测和预报。

如需切换地图:点击带黑十字的绿色按钮放大地图;点击带横线的绿色按钮缩小地图;或者点击绿色箭头查看邻近地区的地图。


METAR-TAF: